sensor_id;sensor_type;location;lat;lon;timestamp;P1;durP1;ratioP1;P2;durP2;ratioP2
63599;SDS011;49747;51.334;6.830;2023-02-24T00:01:38;16.30;;;3.25;;
63599;SDS011;49747;51.334;6.830;2023-02-24T00:04:06;15.20;;;3.25;;
63599;SDS011;49747;51.334;6.830;2023-02-24T00:06:36;19.23;;;3.83;;
63599;SDS011;49747;51.334;6.830;2023-02-24T00:09:07;14.43;;;3.40;;
63599;SDS011;49747;51.334;6.830;2023-02-24T00:11:36;18.77;;;4.20;;
63599;SDS011;49747;51.334;6.830;2023-02-24T00:14:09;20.17;;;4.03;;
63599;SDS011;49747;51.334;6.830;2023-02-24T00:16:38;18.90;;;4.28;;
63599;SDS011;49747;51.334;6.830;2023-02-24T00:19:05;13.25;;;3.47;;
63599;SDS011;49747;51.334;6.830;2023-02-24T00:21:34;16.10;;;3.95;;
63599;SDS011;49747;51.334;6.830;2023-02-24T00:24:01;19.17;;;4.38;;
63599;SDS011;49747;51.334;6.830;2023-02-24T00:26:28;19.83;;;3.58;;
63599;SDS011;49747;51.334;6.830;2023-02-24T00:28:55;18.77;;;3.85;;
63599;SDS011;49747;51.334;6.830;2023-02-24T00:31:25;18.25;;;3.72;;
63599;SDS011;49747;51.334;6.830;2023-02-24T00:34:00;21.63;;;4.57;;
63599;SDS011;49747;51.334;6.830;2023-02-24T00:36:28;12.60;;;3.17;;
63599;SDS011;49747;51.334;6.830;2023-02-24T00:38:57;15.25;;;3.28;;
63599;SDS011;49747;51.334;6.830;2023-02-24T00:41:26;16.40;;;3.15;;
63599;SDS011;49747;51.334;6.830;2023-02-24T00:44:01;17.90;;;3.97;;
63599;SDS011;49747;51.334;6.830;2023-02-24T00:46:36;15.15;;;3.72;;
63599;SDS011;49747;51.334;6.830;2023-02-24T00:51:38;16.50;;;3.70;;
63599;SDS011;49747;51.334;6.830;2023-02-24T00:54:06;18.70;;;3.53;;
63599;SDS011;49747;51.334;6.830;2023-02-24T00:56:34;19.23;;;3.70;;
63599;SDS011;49747;51.334;6.830;2023-02-24T00:59:01;15.52;;;3.80;;
63599;SDS011;49747;51.334;6.830;2023-02-24T01:01:31;18.10;;;3.67;;
63599;SDS011;49747;51.334;6.830;2023-02-24T01:03:59;17.38;;;3.80;;
63599;SDS011;49747;51.334;6.830;2023-02-24T01:06:37;16.40;;;3.38;;
63599;SDS011;49747;51.334;6.830;2023-02-24T01:09:06;15.43;;;3.63;;
63599;SDS011;49747;51.334;6.830;2023-02-24T01:11:34;18.42;;;3.75;;
63599;SDS011;49747;51.334;6.830;2023-02-24T01:14:21;21.40;;;3.33;;
63599;SDS011;49747;51.334;6.830;2023-02-24T01:16:52;19.38;;;3.38;;
63599;SDS011;49747;51.334;6.830;2023-02-24T01:19:20;14.75;;;3.42;;
63599;SDS011;49747;51.334;6.830;2023-02-24T01:22:01;17.60;;;3.15;;
63599;SDS011;49747;51.334;6.830;2023-02-24T01:24:30;15.05;;;3.35;;
63599;SDS011;49747;51.334;6.830;2023-02-24T01:26:58;19.08;;;3.70;;
63599;SDS011;49747;51.334;6.830;2023-02-24T01:29:26;18.77;;;3.50;;
63599;SDS011;49747;51.334;6.830;2023-02-24T01:31:53;12.88;;;3.90;;
63599;SDS011;49747;51.334;6.830;2023-02-24T01:34:24;14.50;;;2.85;;
63599;SDS011;49747;51.334;6.830;2023-02-24T01:36:55;15.77;;;3.00;;
63599;SDS011;49747;51.334;6.830;2023-02-24T01:39:22;13.60;;;2.90;;
63599;SDS011;49747;51.334;6.830;2023-02-24T01:46:48;13.15;;;2.55;;
63599;SDS011;49747;51.334;6.830;2023-02-24T01:49:27;14.05;;;3.13;;
63599;SDS011;49747;51.334;6.830;2023-02-24T01:52:10;14.93;;;3.53;;
63599;SDS011;49747;51.334;6.830;2023-02-24T01:54:59;15.98;;;3.25;;
63599;SDS011;49747;51.334;6.830;2023-02-24T01:57:41;16.00;;;3.20;;
63599;SDS011;49747;51.334;6.830;2023-02-24T02:00:12;17.67;;;2.80;;
63599;SDS011;49747;51.334;6.830;2023-02-24T02:02:59;13.35;;;4.00;;
63599;SDS011;49747;51.334;6.830;2023-02-24T02:05:33;19.10;;;3.20;;
63599;SDS011;49747;51.334;6.830;2023-02-24T02:08:03;12.95;;;3.30;;
63599;SDS011;49747;51.334;6.830;2023-02-24T02:10:30;17.50;;;3.08;;
63599;SDS011;49747;51.334;6.830;2023-02-24T02:12:57;18.67;;;3.40;;
63599;SDS011;49747;51.334;6.830;2023-02-24T02:15:25;13.88;;;3.13;;
63599;SDS011;49747;51.334;6.830;2023-02-24T02:20:52;13.43;;;2.83;;
63599;SDS011;49747;51.334;6.830;2023-02-24T02:26:35;15.05;;;3.30;;
63599;SDS011;49747;51.334;6.830;2023-02-24T02:29:20;13.85;;;3.17;;
63599;SDS011;49747;51.334;6.830;2023-02-24T02:37:45;13.88;;;3.45;;
63599;SDS011;49747;51.334;6.830;2023-02-24T02:40:26;14.18;;;3.30;;
63599;SDS011;49747;51.334;6.830;2023-02-24T02:45:41;14.68;;;3.25;;
63599;SDS011;49747;51.334;6.830;2023-02-24T02:48:16;13.15;;;3.72;;
63599;SDS011;49747;51.334;6.830;2023-02-24T02:50:51;14.52;;;3.47;;
63599;SDS011;49747;51.334;6.830;2023-02-24T02:53:25;18.27;;;4.15;;
63599;SDS011;49747;51.334;6.830;2023-02-24T02:56:02;19.08;;;3.33;;
63599;SDS011;49747;51.334;6.830;2023-02-24T02:59:00;16.48;;;3.50;;
63599;SDS011;49747;51.334;6.830;2023-02-24T03:01:28;18.08;;;3.33;;
63599;SDS011;49747;51.334;6.830;2023-02-24T03:04:01;21.67;;;3.53;;
63599;SDS011;49747;51.334;6.830;2023-02-24T03:06:34;13.55;;;3.47;;
63599;SDS011;49747;51.334;6.830;2023-02-24T03:09:13;14.65;;;3.47;;
63599;SDS011;49747;51.334;6.830;2023-02-24T03:11:48;14.60;;;3.60;;
63599;SDS011;49747;51.334;6.830;2023-02-24T03:14:21;13.20;;;3.20;;
63599;SDS011;49747;51.334;6.830;2023-02-24T03:16:52;14.95;;;3.22;;
63599;SDS011;49747;51.334;6.830;2023-02-24T03:19:25;11.93;;;3.17;;
63599;SDS011;49747;51.334;6.830;2023-02-24T03:25:01;16.98;;;3.45;;
63599;SDS011;49747;51.334;6.830;2023-02-24T03:27:43;16.73;;;3.63;;
63599;SDS011;49747;51.334;6.830;2023-02-24T03:30:16;17.55;;;3.70;;
63599;SDS011;49747;51.334;6.830;2023-02-24T03:35:38;20.13;;;4.07;;
63599;SDS011;49747;51.334;6.830;2023-02-24T03:38:07;19.65;;;3.67;;
63599;SDS011;49747;51.334;6.830;2023-02-24T03:40:36;13.10;;;4.10;;
63599;SDS011;49747;51.334;6.830;2023-02-24T03:43:07;13.60;;;3.20;;
63599;SDS011;49747;51.334;6.830;2023-02-24T03:45:42;14.95;;;3.33;;
63599;SDS011;49747;51.334;6.830;2023-02-24T03:48:09;22.08;;;3.80;;
63599;SDS011;49747;51.334;6.830;2023-02-24T03:50:38;13.32;;;3.55;;
63599;SDS011;49747;51.334;6.830;2023-02-24T04:01:31;16.90;;;3.80;;
63599;SDS011;49747;51.334;6.830;2023-02-24T04:04:39;14.43;;;3.30;;
63599;SDS011;49747;51.334;6.830;2023-02-24T04:10:22;17.55;;;3.70;;
63599;SDS011;49747;51.334;6.830;2023-02-24T04:13:01;15.77;;;4.20;;
63599;SDS011;49747;51.334;6.830;2023-02-24T04:18:29;14.55;;;4.60;;
63599;SDS011;49747;51.334;6.830;2023-02-24T04:20:58;17.00;;;4.57;;
63599;SDS011;49747;51.334;6.830;2023-02-24T04:23:29;16.70;;;4.63;;
63599;SDS011;49747;51.334;6.830;2023-02-24T04:25:59;11.93;;;3.92;;
63599;SDS011;49747;51.334;6.830;2023-02-24T04:28:27;14.68;;;3.53;;
63599;SDS011;49747;51.334;6.830;2023-02-24T04:30:59;16.33;;;3.72;;
63599;SDS011;49747;51.334;6.830;2023-02-24T04:33:35;17.50;;;3.70;;
63599;SDS011;49747;51.334;6.830;2023-02-24T04:36:04;16.65;;;3.58;;
63599;SDS011;49747;51.334;6.830;2023-02-24T04:38:35;19.63;;;3.28;;
63599;SDS011;49747;51.334;6.830;2023-02-24T04:41:02;11.35;;;2.75;;
63599;SDS011;49747;51.334;6.830;2023-02-24T04:43:29;13.80;;;3.30;;
63599;SDS011;49747;51.334;6.830;2023-02-24T04:45:55;14.65;;;2.90;;
63599;SDS011;49747;51.334;6.830;2023-02-24T04:48:22;12.02;;;3.22;;
63599;SDS011;49747;51.334;6.830;2023-02-24T04:50:49;15.48;;;3.45;;
63599;SDS011;49747;51.334;6.830;2023-02-24T04:53:20;17.60;;;3.33;;
63599;SDS011;49747;51.334;6.830;2023-02-24T04:55:53;18.30;;;3.55;;
63599;SDS011;49747;51.334;6.830;2023-02-24T04:58:22;14.25;;;3.33;;
63599;SDS011;49747;51.334;6.830;2023-02-24T05:00:53;12.65;;;3.17;;
63599;SDS011;49747;51.334;6.830;2023-02-24T05:03:21;13.52;;;3.88;;
63599;SDS011;49747;51.334;6.830;2023-02-24T05:05:55;16.02;;;3.63;;
63599;SDS011;49747;51.334;6.830;2023-02-24T05:08:25;12.27;;;3.65;;
63599;SDS011;49747;51.334;6.830;2023-02-24T05:10:53;12.07;;;3.53;;
63599;SDS011;49747;51.334;6.830;2023-02-24T05:13:23;18.42;;;4.03;;
63599;SDS011;49747;51.334;6.830;2023-02-24T05:15:54;16.75;;;4.63;;
63599;SDS011;49747;51.334;6.830;2023-02-24T05:18:22;14.65;;;3.80;;
63599;SDS011;49747;51.334;6.830;2023-02-24T05:20:51;13.77;;;3.58;;
63599;SDS011;49747;51.334;6.830;2023-02-24T05:23:39;14.55;;;3.88;;
63599;SDS011;49747;51.334;6.830;2023-02-24T05:26:12;16.02;;;4.72;;
63599;SDS011;49747;51.334;6.830;2023-02-24T05:28:43;17.88;;;4.07;;
63599;SDS011;49747;51.334;6.830;2023-02-24T05:31:15;10.13;;;3.13;;
63599;SDS011;49747;51.334;6.830;2023-02-24T05:33:46;14.45;;;3.00;;
63599;SDS011;49747;51.334;6.830;2023-02-24T05:36:15;14.90;;;3.10;;
63599;SDS011;49747;51.334;6.830;2023-02-24T05:38:44;10.98;;;3.05;;
63599;SDS011;49747;51.334;6.830;2023-02-24T05:41:14;14.77;;;3.88;;
63599;SDS011;49747;51.334;6.830;2023-02-24T05:43:44;13.70;;;2.95;;
63599;SDS011;49747;51.334;6.830;2023-02-24T05:46:18;16.55;;;2.70;;
63599;SDS011;49747;51.334;6.830;2023-02-24T05:48:54;12.95;;;2.88;;
63599;SDS011;49747;51.334;6.830;2023-02-24T05:51:26;11.77;;;2.45;;
63599;SDS011;49747;51.334;6.830;2023-02-24T05:54:01;14.60;;;3.28;;
63599;SDS011;49747;51.334;6.830;2023-02-24T05:56:30;11.38;;;2.90;;
63599;SDS011;49747;51.334;6.830;2023-02-24T05:58:58;14.32;;;2.85;;
63599;SDS011;49747;51.334;6.830;2023-02-24T06:01:32;12.23;;;2.80;;
63599;SDS011;49747;51.334;6.830;2023-02-24T06:04:07;14.68;;;2.90;;
63599;SDS011;49747;51.334;6.830;2023-02-24T06:06:35;15.43;;;3.33;;
63599;SDS011;49747;51.334;6.830;2023-02-24T06:09:05;16.70;;;4.32;;
63599;SDS011;49747;51.334;6.830;2023-02-24T06:11:41;13.55;;;3.35;;
63599;SDS011;49747;51.334;6.830;2023-02-24T06:14:08;18.27;;;3.10;;
63599;SDS011;49747;51.334;6.830;2023-02-24T06:16:36;11.30;;;2.65;;
63599;SDS011;49747;51.334;6.830;2023-02-24T06:19:05;16.73;;;3.65;;
63599;SDS011;49747;51.334;6.830;2023-02-24T06:21:33;16.23;;;2.83;;
63599;SDS011;49747;51.334;6.830;2023-02-24T06:24:01;14.63;;;3.15;;
63599;SDS011;49747;51.334;6.830;2023-02-24T06:26:28;14.90;;;3.30;;
63599;SDS011;49747;51.334;6.830;2023-02-24T06:28:55;14.90;;;3.40;;
63599;SDS011;49747;51.334;6.830;2023-02-24T06:33:52;13.88;;;3.15;;
63599;SDS011;49747;51.334;6.830;2023-02-24T06:36:19;15.50;;;3.72;;
63599;SDS011;49747;51.334;6.830;2023-02-24T06:38:47;13.45;;;3.42;;
63599;SDS011;49747;51.334;6.830;2023-02-24T06:41:14;16.85;;;4.45;;
63599;SDS011;49747;51.334;6.830;2023-02-24T06:43:42;13.35;;;3.25;;
63599;SDS011;49747;51.334;6.830;2023-02-24T06:46:11;10.10;;;2.97;;
63599;SDS011;49747;51.334;6.830;2023-02-24T06:48:39;14.48;;;3.78;;
63599;SDS011;49747;51.334;6.830;2023-02-24T06:51:08;13.70;;;3.20;;
63599;SDS011;49747;51.334;6.830;2023-02-24T06:53:39;10.05;;;3.17;;
63599;SDS011;49747;51.334;6.830;2023-02-24T06:56:09;14.77;;;3.78;;
63599;SDS011;49747;51.334;6.830;2023-02-24T06:58:43;16.63;;;3.58;;
63599;SDS011;49747;51.334;6.830;2023-02-24T07:01:14;14.65;;;3.15;;
63599;SDS011;49747;51.334;6.830;2023-02-24T07:03:43;18.35;;;4.30;;
63599;SDS011;49747;51.334;6.830;2023-02-24T07:06:30;11.93;;;3.40;;
63599;SDS011;49747;51.334;6.830;2023-02-24T07:09:00;12.70;;;4.20;;
63599;SDS011;49747;51.334;6.830;2023-02-24T07:11:30;12.18;;;3.30;;
63599;SDS011;49747;51.334;6.830;2023-02-24T07:13:59;13.90;;;3.15;;
63599;SDS011;49747;51.334;6.830;2023-02-24T07:16:27;12.00;;;2.67;;
63599;SDS011;49747;51.334;6.830;2023-02-24T07:18:55;12.00;;;3.53;;
63599;SDS011;49747;51.334;6.830;2023-02-24T07:23:50;15.52;;;3.45;;
63599;SDS011;49747;51.334;6.830;2023-02-24T07:26:25;12.75;;;3.17;;
63599;SDS011;49747;51.334;6.830;2023-02-24T07:28:53;11.88;;;3.10;;
63599;SDS011;49747;51.334;6.830;2023-02-24T07:31:21;12.35;;;3.38;;
63599;SDS011;49747;51.334;6.830;2023-02-24T07:33:53;10.40;;;3.45;;
63599;SDS011;49747;51.334;6.830;2023-02-24T07:36:23;14.30;;;3.10;;
63599;SDS011;49747;51.334;6.830;2023-02-24T07:38:53;15.38;;;3.10;;
63599;SDS011;49747;51.334;6.830;2023-02-24T07:41:20;15.05;;;3.75;;
63599;SDS011;49747;51.334;6.830;2023-02-24T07:43:49;10.93;;;2.78;;
63599;SDS011;49747;51.334;6.830;2023-02-24T07:46:21;12.70;;;3.03;;
63599;SDS011;49747;51.334;6.830;2023-02-24T07:48:54;14.00;;;2.88;;
63599;SDS011;49747;51.334;6.830;2023-02-24T07:51:22;11.30;;;2.85;;
63599;SDS011;49747;51.334;6.830;2023-02-24T07:53:52;11.63;;;2.58;;
63599;SDS011;49747;51.334;6.830;2023-02-24T07:56:22;10.32;;;3.22;;
63599;SDS011;49747;51.334;6.830;2023-02-24T07:59:02;14.93;;;3.22;;
63599;SDS011;49747;51.334;6.830;2023-02-24T08:01:34;13.35;;;2.83;;
63599;SDS011;49747;51.334;6.830;2023-02-24T08:04:05;14.60;;;3.40;;
63599;SDS011;49747;51.334;6.830;2023-02-24T08:06:34;13.40;;;3.33;;
63599;SDS011;49747;51.334;6.830;2023-02-24T08:09:13;13.35;;;3.25;;
63599;SDS011;49747;51.334;6.830;2023-02-24T08:11:45;9.65;;;3.17;;
63599;SDS011;49747;51.334;6.830;2023-02-24T08:14:12;15.23;;;3.30;;
63599;SDS011;49747;51.334;6.830;2023-02-24T08:16:43;9.68;;;2.90;;
63599;SDS011;49747;51.334;6.830;2023-02-24T08:19:12;10.50;;;2.88;;
63599;SDS011;49747;51.334;6.830;2023-02-24T08:21:46;11.38;;;2.75;;
63599;SDS011;49747;51.334;6.830;2023-02-24T08:24:19;9.15;;;3.45;;
63599;SDS011;49747;51.334;6.830;2023-02-24T08:26:51;9.18;;;2.72;;
63599;SDS011;49747;51.334;6.830;2023-02-24T08:29:35;11.48;;;2.80;;
63599;SDS011;49747;51.334;6.830;2023-02-24T08:32:28;18.90;;;2.88;;
63599;SDS011;49747;51.334;6.830;2023-02-24T08:34:59;13.32;;;2.95;;
63599;SDS011;49747;51.334;6.830;2023-02-24T08:37:31;10.98;;;3.25;;
63599;SDS011;49747;51.334;6.830;2023-02-24T08:40:06;12.13;;;2.83;;
63599;SDS011;49747;51.334;6.830;2023-02-24T08:42:55;15.23;;;3.45;;
63599;SDS011;49747;51.334;6.830;2023-02-24T08:45:35;13.38;;;3.30;;
63599;SDS011;49747;51.334;6.830;2023-02-24T08:48:03;9.10;;;3.45;;
63599;SDS011;49747;51.334;6.830;2023-02-24T08:50:44;11.30;;;3.50;;
63599;SDS011;49747;51.334;6.830;2023-02-24T08:53:11;15.00;;;3.92;;
63599;SDS011;49747;51.334;6.830;2023-02-24T08:55:45;9.05;;;2.85;;
63599;SDS011;49747;51.334;6.830;2023-02-24T08:58:17;9.23;;;3.20;;
63599;SDS011;49747;51.334;6.830;2023-02-24T09:00:45;9.68;;;2.67;;
63599;SDS011;49747;51.334;6.830;2023-02-24T09:03:15;16.55;;;4.03;;
63599;SDS011;49747;51.334;6.830;2023-02-24T09:06:02;9.32;;;2.80;;
63599;SDS011;49747;51.334;6.830;2023-02-24T09:08:31;10.07;;;2.65;;
63599;SDS011;49747;51.334;6.830;2023-02-24T09:11:33;12.65;;;2.90;;
63599;SDS011;49747;51.334;6.830;2023-02-24T09:13:52;10.65;;;3.58;;
63599;SDS011;49747;51.334;6.830;2023-02-24T09:16:23;10.98;;;2.78;;
63599;SDS011;49747;51.334;6.830;2023-02-24T09:18:50;8.93;;;2.90;;
63599;SDS011;49747;51.334;6.830;2023-02-24T09:21:36;17.95;;;3.05;;
63599;SDS011;49747;51.334;6.830;2023-02-24T09:24:15;12.05;;;2.83;;
63599;SDS011;49747;51.334;6.830;2023-02-24T09:26:53;13.73;;;2.92;;
63599;SDS011;49747;51.334;6.830;2023-02-24T09:29:24;10.32;;;2.72;;
63599;SDS011;49747;51.334;6.830;2023-02-24T09:32:04;11.27;;;2.70;;
63599;SDS011;49747;51.334;6.830;2023-02-24T09:34:36;13.98;;;2.55;;
63599;SDS011;49747;51.334;6.830;2023-02-24T09:37:11;12.13;;;3.22;;
63599;SDS011;49747;51.334;6.830;2023-02-24T09:39:52;17.00;;;2.63;;
63599;SDS011;49747;51.334;6.830;2023-02-24T09:42:19;10.38;;;2.40;;
63599;SDS011;49747;51.334;6.830;2023-02-24T09:44:48;13.35;;;3.35;;
63599;SDS011;49747;51.334;6.830;2023-02-24T09:47:25;7.85;;;2.38;;
63599;SDS011;49747;51.334;6.830;2023-02-24T09:50:25;9.63;;;2.75;;
63599;SDS011;49747;51.334;6.830;2023-02-24T09:53:29;12.20;;;2.47;;
63599;SDS011;49747;51.334;6.830;2023-02-24T09:56:10;7.05;;;2.17;;
63599;SDS011;49747;51.334;6.830;2023-02-24T10:04:53;10.57;;;2.10;;
63599;SDS011;49747;51.334;6.830;2023-02-24T10:07:34;9.55;;;1.88;;
63599;SDS011;49747;51.334;6.830;2023-02-24T10:10:06;7.53;;;2.13;;
63599;SDS011;49747;51.334;6.830;2023-02-24T10:12:58;10.77;;;2.38;;
63599;SDS011;49747;51.334;6.830;2023-02-24T10:15:39;8.75;;;2.33;;
63599;SDS011;49747;51.334;6.830;2023-02-24T10:18:26;12.25;;;2.58;;
63599;SDS011;49747;51.334;6.830;2023-02-24T10:20:58;14.73;;;2.47;;
63599;SDS011;49747;51.334;6.830;2023-02-24T10:23:39;11.80;;;2.05;;
63599;SDS011;49747;51.334;6.830;2023-02-24T10:26:14;11.85;;;2.13;;
63599;SDS011;49747;51.334;6.830;2023-02-24T10:35:15;13.60;;;2.28;;
63599;SDS011;49747;51.334;6.830;2023-02-24T10:37:44;14.98;;;2.90;;
63599;SDS011;49747;51.334;6.830;2023-02-24T10:40:12;12.63;;;3.20;;
63599;SDS011;49747;51.334;6.830;2023-02-24T10:42:50;10.45;;;2.53;;
63599;SDS011;49747;51.334;6.830;2023-02-24T10:45:28;11.50;;;2.45;;
63599;SDS011;49747;51.334;6.830;2023-02-24T10:48:05;19.40;;;3.38;;
63599;SDS011;49747;51.334;6.830;2023-02-24T10:53:25;14.40;;;2.88;;
63599;SDS011;49747;51.334;6.830;2023-02-24T10:56:04;9.82;;;2.95;;
63599;SDS011;49747;51.334;6.830;2023-02-24T10:58:59;12.93;;;3.13;;
63599;SDS011;49747;51.334;6.830;2023-02-24T11:01:55;17.17;;;3.70;;
63599;SDS011;49747;51.334;6.830;2023-02-24T11:04:33;17.80;;;3.30;;
63599;SDS011;49747;51.334;6.830;2023-02-24T11:07:30;9.77;;;3.00;;
63599;SDS011;49747;51.334;6.830;2023-02-24T11:10:20;9.98;;;2.97;;
63599;SDS011;49747;51.334;6.830;2023-02-24T11:12:52;10.90;;;2.30;;
63599;SDS011;49747;51.334;6.830;2023-02-24T11:15:48;12.50;;;3.38;;
63599;SDS011;49747;51.334;6.830;2023-02-24T11:18:37;12.73;;;2.70;;
63599;SDS011;49747;51.334;6.830;2023-02-24T11:21:06;13.13;;;2.70;;
63599;SDS011;49747;51.334;6.830;2023-02-24T11:23:40;15.23;;;2.95;;
63599;SDS011;49747;51.334;6.830;2023-02-24T11:26:28;8.77;;;2.38;;
63599;SDS011;49747;51.334;6.830;2023-02-24T11:32:07;11.10;;;2.85;;
63599;SDS011;49747;51.334;6.830;2023-02-24T11:35:15;12.48;;;2.80;;
63599;SDS011;49747;51.334;6.830;2023-02-24T11:37:50;12.55;;;3.03;;
63599;SDS011;49747;51.334;6.830;2023-02-24T11:40:23;9.90;;;3.75;;
63599;SDS011;49747;51.334;6.830;2023-02-24T11:42:59;12.43;;;3.22;;
63599;SDS011;49747;51.334;6.830;2023-02-24T11:45:49;7.90;;;2.85;;
63599;SDS011;49747;51.334;6.830;2023-02-24T11:48:38;11.65;;;2.92;;
63599;SDS011;49747;51.334;6.830;2023-02-24T11:53:48;8.07;;;2.83;;
63599;SDS011;49747;51.334;6.830;2023-02-24T11:59:23;10.45;;;2.83;;
63599;SDS011;49747;51.334;6.830;2023-02-24T12:02:11;11.65;;;2.78;;
63599;SDS011;49747;51.334;6.830;2023-02-24T12:04:55;8.48;;;2.50;;
63599;SDS011;49747;51.334;6.830;2023-02-24T12:07:39;10.57;;;2.60;;
63599;SDS011;49747;51.334;6.830;2023-02-24T12:10:15;11.02;;;3.00;;
63599;SDS011;49747;51.334;6.830;2023-02-24T12:12:48;10.93;;;2.85;;
63599;SDS011;49747;51.334;6.830;2023-02-24T12:15:29;13.27;;;2.72;;
63599;SDS011;49747;51.334;6.830;2023-02-24T12:39:20;11.70;;;3.35;;
63599;SDS011;49747;51.334;6.830;2023-02-24T12:42:06;8.48;;;2.80;;
63599;SDS011;49747;51.334;6.830;2023-02-24T12:44:47;11.55;;;3.03;;
63599;SDS011;49747;51.334;6.830;2023-02-24T12:47:25;12.85;;;3.15;;
63599;SDS011;49747;51.334;6.830;2023-02-24T12:52:40;10.07;;;4.00;;
63599;SDS011;49747;51.334;6.830;2023-02-24T13:00:51;10.98;;;4.00;;
63599;SDS011;49747;51.334;6.830;2023-02-24T13:06:04;10.13;;;4.13;;
63599;SDS011;49747;51.334;6.830;2023-02-24T13:08:44;11.77;;;3.83;;
63599;SDS011;49747;51.334;6.830;2023-02-24T13:14:02;14.15;;;5.05;;
63599;SDS011;49747;51.334;6.830;2023-02-24T13:16:36;9.07;;;3.35;;
63599;SDS011;49747;51.334;6.830;2023-02-24T13:19:50;11.07;;;3.42;;
63599;SDS011;49747;51.334;6.830;2023-02-24T13:22:00;10.43;;;3.50;;
63599;SDS011;49747;51.334;6.830;2023-02-24T13:24:31;11.85;;;3.78;;
63599;SDS011;49747;51.334;6.830;2023-02-24T13:29:44;10.23;;;3.75;;
63599;SDS011;49747;51.334;6.830;2023-02-24T13:32:27;14.55;;;4.22;;
63599;SDS011;49747;51.334;6.830;2023-02-24T13:37:52;15.38;;;3.65;;
63599;SDS011;49747;51.334;6.830;2023-02-24T13:45:22;8.43;;;3.35;;
63599;SDS011;49747;51.334;6.830;2023-02-24T13:48:21;11.13;;;4.00;;
63599;SDS011;49747;51.334;6.830;2023-02-24T13:56:59;10.32;;;3.28;;
63599;SDS011;49747;51.334;6.830;2023-02-24T13:59:53;11.05;;;4.00;;
63599;SDS011;49747;51.334;6.830;2023-02-24T14:02:37;12.50;;;4.13;;
63599;SDS011;49747;51.334;6.830;2023-02-24T14:05:10;7.10;;;3.28;;
63599;SDS011;49747;51.334;6.830;2023-02-24T14:07:47;11.38;;;3.65;;
63599;SDS011;49747;51.334;6.830;2023-02-24T14:10:17;10.88;;;3.45;;
63599;SDS011;49747;51.334;6.830;2023-02-24T14:12:56;14.27;;;4.45;;
63599;SDS011;49747;51.334;6.830;2023-02-24T14:15:26;13.80;;;3.85;;
63599;SDS011;49747;51.334;6.830;2023-02-24T14:17:55;8.75;;;4.07;;
63599;SDS011;49747;51.334;6.830;2023-02-24T14:20:27;11.60;;;3.15;;
63599;SDS011;49747;51.334;6.830;2023-02-24T14:22:57;11.25;;;4.00;;
63599;SDS011;49747;51.334;6.830;2023-02-24T14:25:29;10.95;;;4.10;;
63599;SDS011;49747;51.334;6.830;2023-02-24T14:28:01;11.80;;;3.83;;
63599;SDS011;49747;51.334;6.830;2023-02-24T14:30:30;19.30;;;4.90;;
63599;SDS011;49747;51.334;6.830;2023-02-24T14:33:00;11.07;;;3.50;;
63599;SDS011;49747;51.334;6.830;2023-02-24T14:35:35;9.73;;;4.00;;
63599;SDS011;49747;51.334;6.830;2023-02-24T14:38:34;11.75;;;3.78;;
63599;SDS011;49747;51.334;6.830;2023-02-24T14:41:05;9.73;;;3.83;;
63599;SDS011;49747;51.334;6.830;2023-02-24T14:43:42;11.20;;;5.05;;
63599;SDS011;49747;51.334;6.830;2023-02-24T14:46:08;14.45;;;4.63;;
63599;SDS011;49747;51.334;6.830;2023-02-24T14:48:35;10.30;;;4.68;;
63599;SDS011;49747;51.334;6.830;2023-02-24T14:51:04;16.90;;;4.63;;
63599;SDS011;49747;51.334;6.830;2023-02-24T14:53:38;16.58;;;4.78;;
63599;SDS011;49747;51.334;6.830;2023-02-24T14:56:11;11.85;;;4.63;;
63599;SDS011;49747;51.334;6.830;2023-02-24T14:58:41;11.05;;;4.95;;
63599;SDS011;49747;51.334;6.830;2023-02-24T15:01:18;20.80;;;5.93;;
63599;SDS011;49747;51.334;6.830;2023-02-24T15:03:50;14.10;;;4.97;;
63599;SDS011;49747;51.334;6.830;2023-02-24T15:06:23;13.68;;;5.53;;
63599;SDS011;49747;51.334;6.830;2023-02-24T15:09:00;10.43;;;5.68;;
63599;SDS011;49747;51.334;6.830;2023-02-24T15:11:31;13.52;;;5.53;;
63599;SDS011;49747;51.334;6.830;2023-02-24T15:13:58;11.00;;;5.85;;
63599;SDS011;49747;51.334;6.830;2023-02-24T15:16:30;15.27;;;5.50;;
63599;SDS011;49747;51.334;6.830;2023-02-24T15:19:03;12.90;;;5.15;;
63599;SDS011;49747;51.334;6.830;2023-02-24T15:21:44;12.77;;;5.57;;
63599;SDS011;49747;51.334;6.830;2023-02-24T15:29:41;12.95;;;6.57;;
63599;SDS011;49747;51.334;6.830;2023-02-24T15:32:12;14.10;;;6.60;;
63599;SDS011;49747;51.334;6.830;2023-02-24T15:34:43;15.13;;;7.45;;
63599;SDS011;49747;51.334;6.830;2023-02-24T15:37:13;14.20;;;6.88;;
63599;SDS011;49747;51.334;6.830;2023-02-24T15:39:48;15.88;;;7.30;;
63599;SDS011;49747;51.334;6.830;2023-02-24T15:45:03;15.40;;;6.20;;
63599;SDS011;49747;51.334;6.830;2023-02-24T15:47:39;12.52;;;6.95;;
63599;SDS011;49747;51.334;6.830;2023-02-24T15:50:11;13.90;;;6.40;;
63599;SDS011;49747;51.334;6.830;2023-02-24T15:52:38;11.70;;;6.50;;
63599;SDS011;49747;51.334;6.830;2023-02-24T15:55:06;15.25;;;7.45;;
63599;SDS011;49747;51.334;6.830;2023-02-24T15:57:37;14.60;;;7.30;;
63599;SDS011;49747;51.334;6.830;2023-02-24T16:00:05;17.55;;;7.32;;
63599;SDS011;49747;51.334;6.830;2023-02-24T16:02:38;18.90;;;8.35;;
63599;SDS011;49747;51.334;6.830;2023-02-24T16:05:05;16.10;;;7.97;;
63599;SDS011;49747;51.334;6.830;2023-02-24T16:07:35;15.23;;;8.05;;
63599;SDS011;49747;51.334;6.830;2023-02-24T16:10:04;15.73;;;8.63;;
63599;SDS011;49747;51.334;6.830;2023-02-24T16:12:32;17.23;;;8.15;;
63599;SDS011;49747;51.334;6.830;2023-02-24T16:15:02;12.10;;;6.15;;
63599;SDS011;49747;51.334;6.830;2023-02-24T16:17:35;12.55;;;8.10;;
63599;SDS011;49747;51.334;6.830;2023-02-24T16:20:05;11.50;;;8.02;;
63599;SDS011;49747;51.334;6.830;2023-02-24T16:22:36;17.20;;;8.43;;
63599;SDS011;49747;51.334;6.830;2023-02-24T16:25:03;18.35;;;8.63;;
63599;SDS011;49747;51.334;6.830;2023-02-24T16:27:31;19.48;;;8.90;;
63599;SDS011;49747;51.334;6.830;2023-02-24T16:29:58;17.05;;;8.85;;
63599;SDS011;49747;51.334;6.830;2023-02-24T16:32:25;15.80;;;8.98;;
63599;SDS011;49747;51.334;6.830;2023-02-24T16:34:52;14.95;;;8.93;;
63599;SDS011;49747;51.334;6.830;2023-02-24T16:37:23;18.52;;;9.75;;
63599;SDS011;49747;51.334;6.830;2023-02-24T16:39:53;14.05;;;8.73;;
63599;SDS011;49747;51.334;6.830;2023-02-24T16:42:20;15.18;;;9.13;;
63599;SDS011;49747;51.334;6.830;2023-02-24T16:44:47;17.33;;;10.50;;
63599;SDS011;49747;51.334;6.830;2023-02-24T16:47:16;18.83;;;10.43;;
63599;SDS011;49747;51.334;6.830;2023-02-24T16:49:46;22.95;;;10.50;;
63599;SDS011;49747;51.334;6.830;2023-02-24T16:52:13;18.55;;;9.73;;
63599;SDS011;49747;51.334;6.830;2023-02-24T16:54:44;14.55;;;8.77;;
63599;SDS011;49747;51.334;6.830;2023-02-24T16:57:13;21.27;;;10.05;;
63599;SDS011;49747;51.334;6.830;2023-02-24T16:59:40;13.68;;;8.70;;
63599;SDS011;49747;51.334;6.830;2023-02-24T17:02:19;13.10;;;8.35;;
63599;SDS011;49747;51.334;6.830;2023-02-24T17:07:15;15.80;;;8.65;;
63599;SDS011;49747;51.334;6.830;2023-02-24T17:09:44;10.57;;;5.75;;
63599;SDS011;49747;51.334;6.830;2023-02-24T17:12:12;11.38;;;5.70;;
63599;SDS011;49747;51.334;6.830;2023-02-24T17:14:42;9.23;;;5.00;;
63599;SDS011;49747;51.334;6.830;2023-02-24T17:17:09;12.10;;;4.18;;
63599;SDS011;49747;51.334;6.830;2023-02-24T17:19:37;8.50;;;4.43;;
63599;SDS011;49747;51.334;6.830;2023-02-24T17:22:04;7.72;;;4.00;;
63599;SDS011;49747;51.334;6.830;2023-02-24T17:24:31;9.98;;;5.07;;
63599;SDS011;49747;51.334;6.830;2023-02-24T17:26:57;10.05;;;3.40;;